Time;durP1;ratioP1;P1;durP2;ratioP2;P2;SDS_P1;SDS_P2;PMS_P1;PMS_P2;Temp;Humidity;BMP_temperature;BMP_pressure;BME280_temperature;BME280_humidity;BME280_pressure;Samples;Min_cycle;Max_cycle;Signal;HPM_P1;HPM_P2
2022/05/20 00:01:52;;;;;;;8.67;7.80;;;18.60;99.90;;;;;;5037383;28;20219;-79
2022/05/20 00:04:19;;;;;;;9.00;8.30;;;18.60;99.90;;;;;;5039404;28;20235;-80
2022/05/20 00:06:46;;;;;;;9.63;8.93;;;18.60;99.90;;;;;;5042477;28;20219;-80
2022/05/20 00:09:13;;;;;;;9.83;9.03;;;18.50;99.90;;;;;;5039016;28;20685;-78
2022/05/20 00:11:40;;;;;;;8.80;8.20;;;18.50;99.90;;;;;;5040635;28;20307;-80
2022/05/20 00:14:07;;;;;;;9.27;8.47;;;18.50;99.90;;;;;;5040599;28;20661;-80
2022/05/20 00:16:35;;;;;;;9.37;8.57;;;18.50;99.90;;;;;;5034851;28;20606;-80
2022/05/20 00:19:03;;;;;;;9.40;8.50;;;18.50;99.90;;;;;;5036061;28;20676;-80
2022/05/20 00:21:31;;;;;;;8.70;8.00;;;18.40;99.90;;;;;;5041049;28;20588;-80
2022/05/20 00:23:58;;;;;;;9.07;8.20;;;18.50;99.90;;;;;;5038529;28;20680;-79
2022/05/20 00:26:25;;;;;;;9.03;8.33;;;18.40;99.90;;;;;;5038728;28;20667;-80
2022/05/20 00:28:53;;;;;;;9.20;8.50;;;18.30;99.90;;;;;;5039773;28;20662;-80
2022/05/20 00:31:21;;;;;;;9.87;9.17;;;18.20;99.90;;;;;;5045718;28;20219;-80
2022/05/20 00:33:50;;;;;;;9.63;8.83;;;18.20;99.90;;;;;;5040538;28;20205;-80
2022/05/20 00:36:17;;;;;;;9.13;8.33;;;18.20;99.90;;;;;;5037584;28;20223;-80
2022/05/20 00:38:44;;;;;;;9.27;8.47;;;18.20;99.90;;;;;;5045184;28;20199;-80
2022/05/20 00:41:11;;;;;;;8.80;8.17;;;18.10;99.90;;;;;;5042249;28;20276;-80
2022/05/20 00:43:40;;;;;;;9.23;8.43;;;18.00;99.90;;;;;;5037831;28;20571;-79
2022/05/20 00:46:10;;;;;;;9.63;8.90;;;18.00;99.90;;;;;;5045940;28;20192;-79
2022/05/20 00:48:38;;;;;;;9.43;8.67;;;17.90;99.90;;;;;;5031159;28;20195;-80
2022/05/20 00:51:12;;;;;;;9.50;8.53;;;17.90;99.90;;;;;;5045275;28;20704;-79
2022/05/20 00:53:44;;;;;;;9.37;8.60;;;17.90;99.90;;;;;;5033901;28;20205;-78
2022/05/20 00:56:15;;;;;;;8.93;8.17;;;17.90;99.90;;;;;;5040207;28;20227;-81
2022/05/20 00:58:43;;;;;;;9.20;8.43;;;17.80;99.90;;;;;;5058561;28;20219;-81
2022/05/20 01:01:10;;;;;;;9.50;8.73;;;17.80;99.90;;;;;;5050073;28;20250;-79
2022/05/20 01:03:39;;;;;;;9.87;8.90;;;17.80;99.90;;;;;;5043647;28;20200;-78
2022/05/20 01:06:08;;;;;;;9.43;8.63;;;17.70;99.90;;;;;;5042941;28;20195;-79
2022/05/20 01:08:35;;;;;;;9.60;8.70;;;17.80;99.90;;;;;;5034851;28;20196;-80
2022/05/20 01:11:02;;;;;;;9.17;8.47;;;17.70;99.90;;;;;;5041583;28;20234;-80
2022/05/20 01:13:31;;;;;;;9.27;8.57;;;17.70;99.90;;;;;;5041892;28;20288;-79
2022/05/20 01:16:02;;;;;;;9.57;8.87;;;17.80;99.90;;;;;;5046259;28;20239;-79
2022/05/20 01:18:32;;;;;;;8.93;8.20;;;17.80;99.90;;;;;;5044267;28;20581;-78
2022/05/20 01:20:59;;;;;;;9.10;8.40;;;17.80;99.90;;;;;;5041904;28;20266;-79
2022/05/20 01:23:29;;;;;;;10.20;9.20;;;17.80;99.90;;;;;;5044830;28;20206;-79
2022/05/20 01:25:58;;;;;;;9.97;9.07;;;17.70;99.90;;;;;;5042110;28;20289;-78
2022/05/20 01:28:28;;;;;;;9.93;9.03;;;17.70;99.90;;;;;;5038172;28;20295;-80
2022/05/20 01:30:57;;;;;;;10.27;9.47;;;17.70;99.90;;;;;;5041095;28;20223;-80
2022/05/20 01:33:26;;;;;;;10.13;9.27;;;17.70;99.90;;;;;;5042087;28;20397;-79
2022/05/20 01:35:53;;;;;;;9.53;8.73;;;17.70;99.90;;;;;;5041073;28;20298;-80
2022/05/20 01:38:21;;;;;;;9.57;8.77;;;17.70;99.90;;;;;;5040560;28;20554;-79
2022/05/20 01:40:52;;;;;;;11.27;10.37;;;17.60;99.90;;;;;;5040452;28;20202;-80
2022/05/20 01:43:30;;;;;;;9.97;9.17;;;17.60;99.90;;;;;;5044840;28;20660;-79
2022/05/20 01:46:09;;;;;;;10.20;9.30;;;17.60;99.90;;;;;;5042762;28;20250;-79
2022/05/20 01:48:40;;;;;;;10.10;9.10;;;17.50;99.90;;;;;;5039388;28;20280;-78
2022/05/20 01:51:11;;;;;;;9.57;8.87;;;17.50;99.90;;;;;;5037635;28;20232;-79
2022/05/20 01:53:43;;;;;;;10.03;9.23;;;17.50;99.90;;;;;;5032991;28;20191;-79
2022/05/20 01:56:16;;;;;;;10.07;9.20;;;17.50;99.90;;;;;;5040684;28;20284;-79
2022/05/20 01:58:48;;;;;;;10.60;9.80;;;17.40;99.90;;;;;;5033661;28;20200;-79
2022/05/20 02:01:21;;;;;;;9.70;8.90;;;17.50;99.90;;;;;;5040484;28;20249;-79
2022/05/20 02:03:54;;;;;;;10.30;9.40;;;17.40;99.90;;;;;;5040672;28;20211;-79
2022/05/20 02:06:25;;;;;;;10.27;9.33;;;17.40;99.90;;;;;;5061154;28;20294;-79
2022/05/20 02:08:56;;;;;;;9.50;8.80;;;17.40;99.90;;;;;;5057472;28;20294;-80
2022/05/20 02:11:29;;;;;;;9.97;9.17;;;17.40;99.90;;;;;;5038045;28;20235;-78
2022/05/20 02:14:02;;;;;;;9.50;8.80;;;17.40;99.90;;;;;;5043910;28;20214;-80
2022/05/20 02:16:32;;;;;;;10.07;9.27;;;17.40;99.90;;;;;;5043421;28;20302;-80
2022/05/20 02:19:04;;;;;;;10.23;9.43;;;17.40;99.90;;;;;;5052471;28;20817;-80
2022/05/20 02:21:34;;;;;;;9.60;8.90;;;17.40;99.90;;;;;;5041933;28;20226;-77
2022/05/20 02:24:05;;;;;;;10.20;9.50;;;17.40;99.90;;;;;;5043879;28;20208;-79
2022/05/20 02:26:41;;;;;;;11.00;10.10;;;17.50;99.90;;;;;;5043119;28;20576;-80
2022/05/20 02:29:11;;;;;;;10.37;9.57;;;17.50;99.90;;;;;;5043634;28;20209;-80
2022/05/20 02:31:42;;;;;;;10.43;9.43;;;17.60;99.90;;;;;;5034454;28;20238;-80
2022/05/20 02:34:09;;;;;;;10.47;9.70;;;17.60;99.90;;;;;;5043919;28;20206;-77
2022/05/20 02:36:36;;;;;;;10.90;9.90;;;17.60;99.90;;;;;;5029828;28;20214;-80
2022/05/20 02:39:06;;;;;;;10.50;9.70;;;17.60;99.90;;;;;;5054731;28;20238;-79
2022/05/20 02:41:35;;;;;;;11.00;10.17;;;17.70;99.90;;;;;;5041166;28;20298;-78
2022/05/20 02:44:02;;;;;;;10.70;9.90;;;17.70;99.90;;;;;;5040017;28;20290;-80
2022/05/20 02:46:29;;;;;;;10.43;9.63;;;17.70;99.90;;;;;;5041003;28;20198;-78
2022/05/20 02:48:56;;;;;;;10.73;9.90;;;17.70;99.90;;;;;;5043500;28;20301;-79
2022/05/20 02:51:23;;;;;;;11.07;10.23;;;17.70;99.90;;;;;;5042496;28;20242;-78
2022/05/20 02:53:50;;;;;;;10.63;9.83;;;17.70;99.90;;;;;;5029895;28;20200;-78
2022/05/20 02:56:17;;;;;;;9.93;9.23;;;17.70;99.90;;;;;;5031376;28;20561;-77
2022/05/20 03:04:14;;;;;;;11.10;10.27;;;17.70;99.90;;;;;;5040288;28;20222;-78
2022/05/20 03:06:42;;;;;;;10.90;10.10;;;17.70;99.90;;;;;;5040104;28;20223;-77
2022/05/20 03:09:11;;;;;;;10.83;10.03;;;17.70;99.90;;;;;;5036119;28;20203;-77
2022/05/20 03:11:39;;;;;;;10.67;9.87;;;17.60;99.90;;;;;;5046512;28;20220;-79
2022/05/20 03:14:09;;;;;;;11.27;10.37;;;17.60;99.90;;;;;;5026333;28;20211;-76
2022/05/20 03:16:37;;;;;;;10.73;9.93;;;17.60;99.90;;;;;;5029808;28;20215;-79
2022/05/20 03:19:04;;;;;;;11.27;10.37;;;17.60;99.90;;;;;;5030063;28;20211;-78
2022/05/20 03:21:31;;;;;;;11.50;10.57;;;17.60;99.90;;;;;;5028970;28;20743;-78
2022/05/20 03:23:59;;;;;;;11.80;10.90;;;17.60;99.90;;;;;;5033124;28;20545;-80
2022/05/20 03:26:26;;;;;;;11.27;10.47;;;17.60;99.90;;;;;;5041403;28;20203;-79
2022/05/20 03:28:53;;;;;;;10.67;9.87;;;17.60;99.90;;;;;;5039781;28;20585;-80
2022/05/20 03:31:22;;;;;;;11.60;10.63;;;17.60;99.90;;;;;;5041996;28;20225;-79
2022/05/20 03:33:49;;;;;;;11.40;10.50;;;17.60;99.90;;;;;;5039119;28;20253;-79
2022/05/20 03:36:16;;;;;;;12.30;11.30;;;17.60;99.90;;;;;;5036368;28;20228;-79
2022/05/20 03:38:43;;;;;;;11.87;10.87;;;17.60;99.90;;;;;;5039653;28;20580;-79
2022/05/20 03:41:11;;;;;;;11.83;10.73;;;17.60;99.90;;;;;;5042180;28;20303;-78
2022/05/20 03:43:38;;;;;;;11.57;10.67;;;17.60;99.90;;;;;;5038782;28;20203;-80
2022/05/20 03:46:05;;;;;;;11.50;10.60;;;17.50;99.90;;;;;;5038659;28;20664;-80
2022/05/20 03:48:34;;;;;;;11.37;10.47;;;17.60;99.90;;;;;;5034241;28;20287;-79
2022/05/20 03:51:08;;;;;;;11.83;10.87;;;17.60;99.90;;;;;;5041867;28;20226;-79
2022/05/20 03:53:35;;;;;;;11.63;10.73;;;17.60;99.90;;;;;;5037696;28;20198;-79
2022/05/20 03:56:02;;;;;;;12.10;11.00;;;17.60;99.90;;;;;;5037638;28;20240;-79
2022/05/20 03:58:29;;;;;;;11.33;10.50;;;17.60;99.90;;;;;;5041392;28;20298;-79
2022/05/20 04:03:54;;;;;;;11.70;10.70;;;17.70;99.90;;;;;;5003830;28;20201;-79
2022/05/20 04:06:21;;;;;;;11.63;10.73;;;17.70;99.90;;;;;;5021129;28;20192;-79
2022/05/20 04:08:48;;;;;;;10.70;9.90;;;17.70;99.90;;;;;;5035675;28;20208;-79
2022/05/20 04:11:15;;;;;;;10.90;9.93;;;17.80;99.90;;;;;;5033630;28;20220;-80
2022/05/20 04:13:42;;;;;;;11.33;10.43;;;17.80;99.90;;;;;;5041920;28;20232;-79
2022/05/20 04:16:11;;;;;;;11.20;10.37;;;17.80;99.90;;;;;;5037687;28;20219;-79
2022/05/20 04:18:40;;;;;;;11.73;10.83;;;17.90;99.90;;;;;;5030436;28;20189;-79
2022/05/20 04:21:09;;;;;;;10.83;10.03;;;17.90;99.90;;;;;;5038253;28;20231;-79
2022/05/20 04:23:36;;;;;;;11.73;10.73;;;17.90;99.90;;;;;;5038662;28;20657;-80
2022/05/20 04:26:03;;;;;;;11.60;10.63;;;17.90;99.90;;;;;;5038874;28;20195;-80
2022/05/20 04:28:30;;;;;;;10.90;10.07;;;17.90;99.90;;;;;;5034632;28;20210;-79
2022/05/20 04:30:59;;;;;;;12.10;11.10;;;17.90;99.90;;;;;;5041598;28;20310;-79
2022/05/20 04:33:27;;;;;;;11.63;10.53;;;17.90;99.90;;;;;;5037619;28;20205;-79
2022/05/20 04:35:54;;;;;;;11.70;10.77;;;18.00;99.90;;;;;;5039209;28;20206;-80
2022/05/20 04:38:23;;;;;;;11.27;10.43;;;18.00;99.90;;;;;;5039994;28;20201;-78
2022/05/20 04:46:56;;;;;;;10.27;9.50;;;18.10;99.90;;;;;;5038403;28;20481;-80
2022/05/20 04:49:09;;;;;;;11.07;10.27;;;18.40;99.90;;;;;;5041464;28;20271;-79
2022/05/20 04:51:37;;;;;;;11.20;10.40;;;18.50;99.90;;;;;;5033898;28;20236;-78
2022/05/20 04:56:51;;;;;;;10.43;9.63;;;18.80;99.90;;;;;;5033820;28;20210;-77
2022/05/20 04:59:20;;;;;;;9.90;9.10;;;19.00;99.90;;;;;;5037746;28;20199;-79
2022/05/20 05:01:48;;;;;;;9.73;9.00;;;19.10;99.90;;;;;;5039461;28;20228;-79
2022/05/20 05:04:16;;;;;;;10.23;9.40;;;19.20;99.90;;;;;;5039253;28;20545;-79
2022/05/20 05:06:43;;;;;;;9.77;8.67;;;19.30;99.90;;;;;;5040905;28;20198;-78
2022/05/20 05:09:12;;;;;;;7.97;7.30;;;19.60;99.90;;;;;;5046212;28;20273;-81
2022/05/20 05:11:40;;;;;;;8.83;8.03;;;19.90;99.90;;;;;;5027441;28;20232;-79
2022/05/20 05:14:08;;;;;;;7.83;7.13;;;20.10;99.90;;;;;;5035544;28;20211;-80
2022/05/20 05:16:35;;;;;;;7.80;7.10;;;20.30;99.90;;;;;;5041969;28;20696;-81
2022/05/20 05:19:03;;;;;;;8.00;7.30;;;20.50;99.90;;;;;;5041469;28;20217;-80
2022/05/20 05:21:30;;;;;;;10.23;9.33;;;20.80;99.90;;;;;;5044032;28;20319;-81
2022/05/20 05:24:00;;;;;;;10.27;9.37;;;21.00;99.90;;;;;;5043710;28;20212;-81
2022/05/20 05:26:29;;;;;;;9.63;8.30;;;21.20;99.90;;;;;;5045157;28;20238;-81
2022/05/20 05:28:57;;;;;;;10.13;9.13;;;21.30;99.90;;;;;;5042605;28;20210;-81
2022/05/20 05:31:24;;;;;;;9.87;8.97;;;21.40;99.90;;;;;;5038933;28;20279;-80
2022/05/20 05:33:51;;;;;;;10.70;9.70;;;21.50;99.90;;;;;;5042257;28;20221;-81
2022/05/20 05:36:19;;;;;;;9.27;8.27;;;21.50;99.90;;;;;;5044921;28;20219;-81
2022/05/20 05:38:47;;;;;;;9.30;8.40;;;21.60;99.90;;;;;;5040441;28;20289;-80
2022/05/20 05:41:17;;;;;;;7.50;5.93;;;21.60;99.90;;;;;;5037732;28;20220;-80
2022/05/20 05:43:46;;;;;;;6.90;5.80;;;21.70;99.90;;;;;;5041870;28;20196;-81
2022/05/20 05:46:14;;;;;;;7.40;6.13;;;21.80;99.90;;;;;;5042179;28;20196;-81
2022/05/20 05:48:41;;;;;;;7.57;5.77;;;22.30;99.90;;;;;;5042514;28;20200;-80
2022/05/20 05:51:07;;;;;;;6.50;5.43;;;22.60;99.90;;;;;;5041651;28;20254;-80
2022/05/20 05:53:34;;;;;;;9.77;8.90;;;23.00;99.90;;;;;;5040875;28;20207;-80
2022/05/20 05:56:06;;;;;;;9.17;8.27;;;23.20;99.90;;;;;;5043066;28;20290;-80
2022/05/20 05:58:33;;;;;;;7.17;6.47;;;23.30;99.90;;;;;;5039039;28;20203;-80
2022/05/20 06:01:02;;;;;;;8.27;6.70;;;23.30;99.90;;;;;;5038839;28;20224;-80
2022/05/20 06:03:29;;;;;;;8.13;6.90;;;23.30;99.90;;;;;;5036607;28;20614;-80
2022/05/20 06:05:56;;;;;;;8.83;7.97;;;23.30;99.90;;;;;;5040541;28;20200;-79
2022/05/20 06:08:24;;;;;;;6.53;5.87;;;23.60;99.90;;;;;;5042399;28;20188;-80
2022/05/20 06:10:51;;;;;;;9.17;8.37;;;23.70;99.90;;;;;;5041924;28;20196;-81
2022/05/20 06:13:23;;;;;;;9.80;8.90;;;23.80;99.90;;;;;;5041097;28;20570;-81
2022/05/20 06:15:51;;;;;;;7.57;6.80;;;23.80;99.90;;;;;;5037934;28;20195;-81
2022/05/20 06:18:19;;;;;;;8.10;6.10;;;23.80;99.90;;;;;;5043058;28;20223;-81
2022/05/20 06:20:46;;;;;;;7.90;7.20;;;23.80;99.90;;;;;;5033734;28;20289;-81
2022/05/20 06:23:13;;;;;;;9.00;8.30;;;23.80;99.90;;;;;;5045970;28;20199;-81
2022/05/20 06:25:41;;;;;;;9.43;8.53;;;24.20;99.90;;;;;;5039106;28;20222;-78
2022/05/20 06:28:10;;;;;;;10.63;9.70;;;24.60;99.90;;;;;;5048706;28;20187;-80
2022/05/20 06:30:38;;;;;;;9.40;8.60;;;25.10;99.90;;;;;;5035755;28;20196;-80
2022/05/20 06:33:05;;;;;;;8.47;7.70;;;25.50;99.90;;;;;;5040064;28;20211;-80
2022/05/20 06:41:04;;;;;;;8.63;7.83;;;26.00;99.90;;;;;;5041180;28;20215;-81
2022/05/20 06:43:31;;;;;;;8.57;7.87;;;26.30;99.90;;;;;;5037299;28;20207;-81
2022/05/20 06:46:02;;;;;;;8.10;7.50;;;26.90;99.90;;;;;;5038129;28;20589;-81
2022/05/20 06:48:42;;;;;;;9.03;8.03;;;27.40;99.90;;;;;;5040905;28;20230;-81
2022/05/20 06:51:12;;;;;;;8.83;8.00;;;27.80;99.90;;;;;;5040166;28;20223;-80
2022/05/20 06:53:39;;;;;;;8.67;7.87;;;28.30;99.90;;;;;;5030150;28;20207;-81
2022/05/20 06:56:07;;;;;;;8.37;7.47;;;28.30;99.90;;;;;;5043927;28;20207;-81
2022/05/20 06:58:34;;;;;;;8.77;7.97;;;28.60;99.90;;;;;;5038689;28;20223;-80
2022/05/20 07:01:01;;;;;;;7.97;7.17;;;28.80;99.90;;;;;;5039631;28;20224;-82
2022/05/20 07:03:28;;;;;;;8.77;7.87;;;28.50;99.90;;;;;;5042005;28;20204;-81
2022/05/20 07:05:55;;;;;;;8.10;7.30;;;28.40;99.90;;;;;;5037389;28;20218;-80
2022/05/20 07:08:24;;;;;;;8.27;7.47;;;28.40;99.90;;;;;;5040953;28;20625;-80
2022/05/20 07:10:51;;;;;;;8.07;7.30;;;28.50;99.90;;;;;;5038114;28;20234;-80
2022/05/20 07:13:18;;;;;;;7.50;6.73;;;28.50;99.90;;;;;;5040250;28;20203;-81
2022/05/20 07:15:45;;;;;;;8.00;7.30;;;28.70;99.90;;;;;;5050387;28;20671;-81
2022/05/20 07:18:12;;;;;;;9.10;7.30;;;28.70;99.90;;;;;;5034330;28;20772;-80
2022/05/20 07:20:39;;;;;;;8.00;7.30;;;28.60;99.90;;;;;;5042624;28;20195;-81
2022/05/20 07:23:06;;;;;;;8.10;7.30;;;28.80;99.90;;;;;;5039097;28;20196;-80
2022/05/20 07:25:36;;;;;;;8.23;7.47;;;28.80;99.90;;;;;;5046604;28;20258;-82
2022/05/20 07:28:03;;;;;;;8.00;7.30;;;28.70;99.90;;;;;;5039102;28;20199;-80
2022/05/20 07:30:30;;;;;;;7.83;7.03;;;28.60;99.90;;;;;;5042684;28;20206;-79
2022/05/20 07:32:58;;;;;;;9.60;7.13;;;28.90;99.90;;;;;;5042524;28;20596;-81
2022/05/20 07:35:25;;;;;;;8.13;7.37;;;29.10;99.90;;;;;;5039145;28;20204;-81
2022/05/20 07:37:52;;;;;;;8.23;7.03;;;29.20;99.90;;;;;;5036575;28;20215;-82
2022/05/20 07:40:19;;;;;;;7.70;6.77;;;29.40;99.90;;;;;;5040532;28;20286;-80
2022/05/20 07:42:48;;;;;;;8.40;7.53;;;29.60;99.90;;;;;;5041305;28;20218;-83
2022/05/20 07:45:15;;;;;;;8.70;7.80;;;29.70;99.90;;;;;;5039164;28;20247;-81
2022/05/20 07:47:42;;;;;;;7.80;7.20;;;29.70;99.90;;;;;;5039434;28;20195;-81
2022/05/20 07:50:10;;;;;;;8.77;7.43;;;29.90;99.90;;;;;;5035034;28;20199;-81
2022/05/20 07:55:26;;;;;;;7.80;7.20;;;30.10;99.90;;;;;;5036467;28;20274;-81
2022/05/20 07:57:55;;;;;;;8.33;6.57;;;30.10;99.90;;;;;;5037470;28;20260;-81
2022/05/20 08:00:23;;;;;;;7.87;7.13;;;30.00;99.90;;;;;;5039234;28;20192;-80
2022/05/20 08:02:52;;;;;;;7.90;7.03;;;30.20;99.90;;;;;;5038391;28;20307;-81
2022/05/20 08:05:21;;;;;;;7.60;6.90;;;30.40;99.90;;;;;;5039049;28;20203;-81
2022/05/20 08:07:48;;;;;;;7.77;6.90;;;30.60;99.90;;;;;;5035793;28;20244;-81
2022/05/20 08:10:19;;;;;;;7.83;7.03;;;30.60;99.90;;;;;;5041425;28;20223;-81
2022/05/20 08:12:47;;;;;;;11.07;7.83;;;30.90;99.90;;;;;;5038939;28;20306;-81
2022/05/20 08:15:16;;;;;;;8.40;6.93;;;31.10;99.90;;;;;;5036444;28;20744;-81
2022/05/20 08:17:44;;;;;;;8.17;6.93;;;31.10;99.90;;;;;;5039848;28;20221;-81
2022/05/20 08:20:16;;;;;;;7.97;7.20;;;31.30;99.90;;;;;;5038467;28;20253;-82
2022/05/20 08:22:44;;;;;;;7.83;6.97;;;31.40;99.90;;;;;;5041933;28;20223;-81
2022/05/20 08:25:11;;;;;;;8.07;7.27;;;31.40;99.90;;;;;;5044354;28;20200;-81
2022/05/20 08:27:38;;;;;;;7.23;6.63;;;31.50;99.90;;;;;;5030655;28;20606;-81
2022/05/20 08:30:09;;;;;;;8.03;7.23;;;31.50;99.90;;;;;;5037769;28;20227;-81
2022/05/20 08:32:37;;;;;;;8.00;7.30;;;31.90;99.90;;;;;;5041007;28;20239;-81
2022/05/20 08:35:05;;;;;;;7.45;6.85;;;32.00;99.90;;;;;;5038532;28;20192;-80
2022/05/20 08:37:33;;;;;;;8.27;7.40;;;32.00;99.90;;;;;;5041697;28;20299;-82
2022/05/20 08:40:01;;;;;;;7.83;7.13;;;32.20;99.90;;;;;;5038817;28;20207;-83
2022/05/20 08:42:32;;;;;;;7.87;7.13;;;31.90;99.90;;;;;;5033319;28;20226;-79
2022/05/20 08:44:59;;;;;;;7.57;6.88;;;32.10;99.90;;;;;;5038352;28;20208;-80
2022/05/20 08:47:32;;;;;;;8.30;7.50;;;32.00;99.90;;;;;;5038753;28;20595;-81
2022/05/20 08:50:05;;;;;;;8.43;7.22;;;32.30;99.90;;;;;;5039250;28;20207;-82
2022/05/20 08:52:32;;;;;;;7.88;7.10;;;32.30;99.90;;;;;;5043219;28;20779;-82
2022/05/20 08:54:59;;;;;;;7.75;7.05;;;32.70;99.90;;;;;;5044089;28;20204;-82
2022/05/20 08:57:28;;;;;;;8.25;7.55;;;33.10;99.90;;;;;;5045195;28;20230;-81
2022/05/20 08:59:56;;;;;;;7.72;7.13;;;33.00;99.90;;;;;;5041905;28;20208;-82
2022/05/20 09:02:24;;;;;;;7.57;6.80;;;32.40;99.90;;;;;;5045396;28;20313;-82
2022/05/20 09:04:51;;;;;;;8.13;7.43;;;32.30;99.90;;;;;;5041792;28;20203;-80
2022/05/20 09:07:22;;;;;;;7.72;6.65;;;32.50;99.90;;;;;;5039309;28;20661;-82
2022/05/20 09:09:51;;;;;;;7.65;6.72;;;32.60;99.90;;;;;;5042368;28;20191;-82
2022/05/20 09:12:31;;;;;;;7.53;6.88;;;33.10;99.90;;;;;;5042630;28;20224;-82
2022/05/20 09:17:47;;;;;;;7.93;7.07;;;33.70;99.90;;;;;;5034563;28;20225;-82
2022/05/20 09:20:17;;;;;;;8.90;7.22;;;33.90;97.00;;;;;;5041475;28;20199;-82
2022/05/20 09:22:56;;;;;;;7.32;6.72;;;33.70;97.60;;;;;;5043069;28;20219;-82
2022/05/20 09:25:27;;;;;;;9.60;6.97;;;33.80;98.60;;;;;;5042298;28;20249;-83
2022/05/20 09:27:57;;;;;;;7.68;7.07;;;34.00;98.80;;;;;;5041584;28;20200;-82
2022/05/20 09:30:35;;;;;;;9.45;7.13;;;34.20;98.40;;;;;;5045603;28;20231;-82
2022/05/20 09:33:12;;;;;;;7.07;6.57;;;34.50;98.00;;;;;;5043477;28;20203;-82
2022/05/20 09:35:39;;;;;;;7.57;6.80;;;34.60;97.50;;;;;;5040050;28;20226;-82
2022/05/20 09:38:26;;;;;;;7.32;6.72;;;34.70;96.70;;;;;;5039596;28;20216;-83
2022/05/20 09:40:53;;;;;;;8.05;7.10;;;34.40;96.90;;;;;;5051666;28;20229;-82
2022/05/20 09:43:27;;;;;;;7.75;7.05;;;34.30;97.50;;;;;;5042158;28;20196;-82
2022/05/20 09:45:56;;;;;;;7.65;7.00;;;34.40;97.00;;;;;;5041644;28;20303;-81
2022/05/20 09:48:35;;;;;;;7.93;7.20;;;34.40;97.70;;;;;;5041317;28;20199;-82
2022/05/20 09:51:12;;;;;;;7.88;7.05;;;34.40;97.10;;;;;;5039549;28;20321;-82
2022/05/20 09:53:42;;;;;;;9.55;7.20;;;34.50;97.60;;;;;;5036752;28;20209;-82
2022/05/20 09:56:18;;;;;;;8.20;7.50;;;34.30;97.40;;;;;;5044559;28;20204;-81
2022/05/20 09:59:02;;;;;;;8.40;6.93;;;34.40;96.50;;;;;;5033288;28;20222;-82
2022/05/20 10:01:30;;;;;;;7.95;7.03;;;34.30;95.60;;;;;;5041649;28;20247;-82
2022/05/20 10:04:04;;;;;;;7.63;7.03;;;34.20;95.00;;;;;;5040528;28;20291;-81
2022/05/20 10:06:37;;;;;;;7.53;6.82;;;34.20;95.30;;;;;;5040808;28;20207;-83
2022/05/20 10:09:12;;;;;;;8.38;7.50;;;34.30;95.30;;;;;;5040774;28;20200;-82
2022/05/20 10:11:54;;;;;;;7.20;6.50;;;34.20;95.10;;;;;;5032531;28;20215;-82
2022/05/20 10:14:26;;;;;;;7.80;6.68;;;34.10;95.00;;;;;;5040608;28;20663;-82
2022/05/20 10:16:58;;;;;;;8.77;6.78;;;33.90;94.20;;;;;;5040351;28;20199;-82
2022/05/20 10:19:42;;;;;;;7.85;6.68;;;33.80;94.90;;;;;;5040674;28;20273;-81
2022/05/20 10:22:16;;;;;;;7.20;6.60;;;33.60;94.90;;;;;;5038384;28;20224;-82
2022/05/20 10:24:52;;;;;;;6.72;6.22;;;33.60;94.30;;;;;;5027580;28;20660;-82
2022/05/20 10:27:24;;;;;;;7.25;6.20;;;33.60;94.00;;;;;;5048421;28;20203;-82
2022/05/20 10:32:49;;;;;;;6.95;6.35;;;33.60;94.30;;;;;;5033346;28;20207;-81
2022/05/20 10:35:21;;;;;;;6.57;6.00;;;33.60;93.60;;;;;;5041114;28;20198;-82
2022/05/20 10:38:04;;;;;;;6.43;5.75;;;33.40;93.40;;;;;;5035814;28;20218;-81
2022/05/20 10:40:51;;;;;;;6.70;6.10;;;33.50;92.70;;;;;;5039277;28;20565;-79
2022/05/20 10:49:35;;;;;;;6.45;5.85;;;33.50;93.10;;;;;;5036885;28;20188;-81
2022/05/20 10:52:16;;;;;;;7.78;6.30;;;33.40;93.50;;;;;;5034196;28;20322;-82
2022/05/20 10:54:56;;;;;;;6.67;6.07;;;33.20;93.00;;;;;;5036907;28;20210;-81
2022/05/20 10:57:44;;;;;;;6.80;6.13;;;33.10;93.40;;;;;;5042252;28;20198;-81
2022/05/20 11:00:14;;;;;;;7.13;6.40;;;32.90;93.60;;;;;;5042091;28;20200;-81
2022/05/20 11:03:07;;;;;;;7.17;6.47;;;32.90;93.30;;;;;;5036242;28;20261;-82
2022/05/20 11:06:09;;;;;;;7.80;5.93;;;33.00;93.50;;;;;;5036089;28;20196;-80
2022/05/20 11:08:48;;;;;;;6.28;5.78;;;33.10;92.80;;;;;;5035091;28;20234;-81
2022/05/20 11:11:34;;;;;;;6.30;5.70;;;33.20;93.30;;;;;;5041456;28;20318;-80
2022/05/20 11:14:26;;;;;;;6.50;5.90;;;33.10;92.70;;;;;;5040601;28;20735;-81
2022/05/20 11:17:09;;;;;;;5.97;5.47;;;33.10;92.10;;;;;;5043093;28;20203;-81
2022/05/20 11:20:00;;;;;;;6.38;5.78;;;33.00;91.60;;;;;;5027820;28;20718;-80
2022/05/20 11:22:45;;;;;;;8.48;5.38;;;33.00;90.60;;;;;;5039925;28;20219;-81
2022/05/20 11:25:30;;;;;;;6.95;6.00;;;32.90;90.80;;;;;;5044228;28;20199;-81
2022/05/20 11:28:24;;;;;;;6.20;5.60;;;32.60;88.80;;;;;;5040542;28;20294;-80
2022/05/20 11:31:02;;;;;;;6.17;5.53;;;32.60;89.80;;;;;;5032342;28;20211;-81
2022/05/20 11:34:03;;;;;;;7.20;5.73;;;32.50;87.30;;;;;;5036255;28;20204;-81
2022/05/20 11:36:54;;;;;;;7.70;6.00;;;32.50;88.60;;;;;;5035169;28;20217;-80
2022/05/20 11:39:54;;;;;;;8.10;6.17;;;32.40;89.50;;;;;;5041077;28;20691;-81
2022/05/20 11:42:31;;;;;;;6.17;5.67;;;32.40;90.20;;;;;;5024151;28;20226;-81
2022/05/20 11:45:12;;;;;;;7.30;6.30;;;32.40;90.20;;;;;;5022806;28;20626;-81
2022/05/20 11:48:13;;;;;;;5.90;5.40;;;32.40;90.90;;;;;;5038485;28;20200;-80
2022/05/20 11:51:08;;;;;;;6.03;5.43;;;32.30;90.00;;;;;;5031218;28;20582;-81
2022/05/20 11:53:44;;;;;;;6.03;5.43;;;32.30;89.70;;;;;;5055386;28;20199;-80
2022/05/20 11:56:19;;;;;;;6.50;5.90;;;32.30;89.00;;;;;;5041552;28;20213;-82
2022/05/20 11:58:54;;;;;;;6.23;5.73;;;32.30;88.60;;;;;;5037436;28;20210;-81
2022/05/20 12:01:23;;;;;;;6.93;5.83;;;32.30;90.10;;;;;;5035147;28;20285;-81
2022/05/20 12:06:35;;;;;;;6.17;5.57;;;32.20;84.80;;;;;;5037033;28;20203;-80
2022/05/20 12:09:05;;;;;;;6.27;5.67;;;32.10;88.10;;;;;;5039083;28;20661;-79
2022/05/20 12:11:35;;;;;;;7.00;5.57;;;32.10;84.20;;;;;;5041714;28;20261;-82
2022/05/20 12:14:06;;;;;;;7.90;5.93;;;32.10;86.20;;;;;;5038634;28;20215;-80
2022/05/20 12:16:35;;;;;;;6.43;5.47;;;32.10;86.50;;;;;;5041636;28;20278;-79
2022/05/20 12:24:50;;;;;;;6.50;5.90;;;32.10;87.50;;;;;;5014393;28;20192;-79
2022/05/20 12:27:39;;;;;;;6.27;5.23;;;32.00;86.80;;;;;;5031470;28;20231;-79
2022/05/20 12:30:26;;;;;;;6.40;5.70;;;31.90;86.50;;;;;;5038943;28;20207;-79
2022/05/20 12:32:53;;;;;;;7.03;5.90;;;31.90;86.00;;;;;;5036543;28;20219;-79
2022/05/20 12:35:27;;;;;;;7.43;6.43;;;31.90;86.30;;;;;;5044369;28;20218;-79
2022/05/20 12:38:15;;;;;;;6.93;5.50;;;31.90;87.00;;;;;;5044298;28;20214;-79
2022/05/20 12:40:55;;;;;;;6.20;5.70;;;32.00;88.00;;;;;;5037209;28;20203;-79
2022/05/20 12:43:58;;;;;;;9.47;5.90;;;32.00;85.80;;;;;;5044961;28;20206;-79
2022/05/20 12:46:50;;;;;;;6.77;5.87;;;31.90;87.30;;;;;;5044560;28;20669;-79
2022/05/20 12:49:18;;;;;;;6.83;6.20;;;32.00;88.70;;;;;;5061610;28;20699;-79
2022/05/20 12:51:47;;;;;;;6.93;6.20;;;32.00;86.70;;;;;;5035908;28;20228;-79
2022/05/20 12:54:24;;;;;;;6.90;6.00;;;32.10;86.00;;;;;;5042493;28;20454;-79
2022/05/20 12:57:03;;;;;;;6.97;5.67;;;32.10;86.60;;;;;;5038498;28;20226;-79
2022/05/20 12:59:30;;;;;;;6.17;5.63;;;32.00;85.80;;;;;;5037590;28;20208;-79
2022/05/20 13:01:59;;;;;;;6.17;5.63;;;31.90;86.20;;;;;;5036045;28;20692;-79
2022/05/20 13:04:37;;;;;;;6.30;5.80;;;31.90;87.00;;;;;;5039123;28;20430;-79
2022/05/20 13:07:05;;;;;;;7.00;5.70;;;31.90;86.50;;;;;;5037117;28;20200;-79
2022/05/20 13:09:40;;;;;;;6.23;5.73;;;31.90;86.40;;;;;;5039086;28;20196;-79
2022/05/20 13:12:13;;;;;;;6.27;5.73;;;31.90;86.80;;;;;;5036918;28;20254;-79
2022/05/20 13:14:41;;;;;;;6.30;5.70;;;31.90;86.40;;;;;;5038997;28;20245;-80
2022/05/20 13:17:10;;;;;;;6.20;5.60;;;31.90;86.10;;;;;;5036737;28;20575;-80
2022/05/20 13:19:42;;;;;;;6.10;5.50;;;31.90;85.90;;;;;;5037093;28;20216;-79
2022/05/20 13:22:13;;;;;;;5.87;5.20;;;31.90;86.10;;;;;;5036520;28;20232;-79
2022/05/20 13:24:42;;;;;;;9.57;6.00;;;31.90;87.30;;;;;;5035886;28;20657;-80
2022/05/20 13:27:14;;;;;;;6.43;5.83;;;31.90;88.30;;;;;;5037880;28;20196;-80
2022/05/20 13:29:43;;;;;;;7.20;5.67;;;32.00;86.00;;;;;;5053307;28;20286;-80
2022/05/20 13:32:19;;;;;;;6.73;6.03;;;32.10;88.40;;;;;;5036437;28;20727;-80
2022/05/20 13:34:48;;;;;;;6.13;5.50;;;32.10;86.90;;;;;;5051266;28;20233;-80
2022/05/20 13:37:19;;;;;;;6.83;6.00;;;32.00;87.00;;;;;;5037317;28;20200;-80
2022/05/20 13:39:53;;;;;;;5.73;5.17;;;32.00;88.90;;;;;;5040034;28;20206;-79
2022/05/20 13:42:22;;;;;;;6.27;5.70;;;32.00;88.40;;;;;;5037642;28;20224;-78
2022/05/20 13:44:49;;;;;;;5.67;5.17;;;32.10;88.90;;;;;;5049838;28;20205;-79
2022/05/20 13:50:05;;;;;;;6.03;5.40;;;32.00;87.50;;;;;;5040325;28;20188;-79
2022/05/20 13:52:35;;;;;;;5.80;5.30;;;32.10;86.90;;;;;;5047440;28;20262;-80